createdAt,value
2023-04-28T00:01:45.599Z,101553.03
2023-04-28T00:04:13.130Z,101545.63
2023-04-28T00:06:41.067Z,101548.66
2023-04-28T00:09:11.852Z,101547.56
2023-04-28T00:11:38.910Z,101559.00
2023-04-28T00:14:06.307Z,101547.28
2023-04-28T00:16:33.599Z,101548.13
2023-04-28T00:19:00.588Z,101541.06
2023-04-28T00:21:28.676Z,101549.84
2023-04-28T00:23:55.882Z,101545.56
2023-04-28T00:26:22.979Z,101543.28
2023-04-28T00:28:50.540Z,101526.91
2023-04-28T00:31:18.291Z,101543.81
2023-04-28T00:33:45.523Z,101548.13
2023-04-28T00:36:12.666Z,101538.88
2023-04-28T00:38:39.671Z,101543.56
2023-04-28T00:41:06.931Z,101530.66
2023-04-28T00:43:50.411Z,101538.16
2023-04-28T00:46:25.294Z,101538.16
2023-04-28T00:48:52.641Z,101536.06
2023-04-28T00:51:19.687Z,101524.81
2023-04-28T00:53:47.017Z,101525.81
2023-04-28T00:56:14.221Z,101531.09
2023-04-28T00:58:41.775Z,101521.06
2023-04-28T01:01:10.223Z,101529.47
2023-04-28T01:03:41.294Z,101531.47
2023-04-28T01:06:10.735Z,101522.69
2023-04-28T01:08:39.950Z,101521.41
2023-04-28T01:11:14.419Z,101518.94
2023-04-28T01:14:01.852Z,101519.94
2023-04-28T01:16:34.016Z,101507.69
2023-04-28T01:19:02.474Z,101516.47
2023-04-28T01:21:34.735Z,101509.72
2023-04-28T01:24:15.987Z,101514.84
2023-04-28T01:26:44.814Z,101515.84
2023-04-28T01:29:11.946Z,101505.59
2023-04-28T01:31:39.113Z,101508.25
2023-04-28T01:34:06.214Z,101501.94
2023-04-28T01:36:36.653Z,101511.72
2023-04-28T01:39:05.103Z,101502.94
2023-04-28T01:41:34.627Z,101503.09
2023-04-28T01:44:01.844Z,101499.63
2023-04-28T01:46:28.833Z,101499.78
2023-04-28T01:48:55.863Z,101502.44
2023-04-28T01:51:22.942Z,101499.16
2023-04-28T01:53:50.294Z,101493.84
2023-04-28T01:56:17.683Z,101489.56
2023-04-28T01:58:44.924Z,101492.03
2023-04-28T02:01:13.100Z,101481.78
2023-04-28T02:03:40.820Z,101479.13
2023-04-28T02:06:08.068Z,101490.56
2023-04-28T02:08:35.884Z,101489.56
2023-04-28T02:11:03.958Z,101488.91
2023-04-28T02:13:31.226Z,101493.41
2023-04-28T02:16:01.983Z,101491.75
2023-04-28T02:18:29.330Z,101495.22
2023-04-28T02:21:10.856Z,101482.78
2023-04-28T02:23:38.817Z,101487.09
2023-04-28T02:26:06.554Z,101489.56
2023-04-28T02:28:33.895Z,101487.53
2023-04-28T02:31:08.916Z,101488.38
2023-04-28T02:33:37.046Z,101481.06
2023-04-28T02:36:06.243Z,101479.59
2023-04-28T02:38:33.190Z,101478.59
2023-04-28T02:41:09.289Z,101475.94
2023-04-28T02:43:37.375Z,101473.78
2023-04-28T02:46:05.163Z,101477.06
2023-04-28T02:48:35.515Z,101467.47
2023-04-28T02:51:03.082Z,101464.63
2023-04-28T02:53:30.614Z,101461.34
2023-04-28T02:55:58.003Z,101466.28
2023-04-28T02:58:25.232Z,101465.91
2023-04-28T03:00:52.242Z,101466.09
2023-04-28T03:03:19.527Z,101467.75
2023-04-28T03:05:46.852Z,101460.97
2023-04-28T03:08:13.773Z,101459.97
2023-04-28T03:10:40.787Z,101459.16
2023-04-28T03:13:07.917Z,101450.81
2023-04-28T03:15:35.274Z,101453.47
2023-04-28T03:18:02.695Z,101445.97
2023-04-28T03:20:29.899Z,101448.63
2023-04-28T03:22:57.079Z,101444.97
2023-04-28T03:25:24.189Z,101455.03
2023-04-28T03:27:52.010Z,101446.88
2023-04-28T03:30:19.650Z,101444.22
2023-04-28T03:32:47.032Z,101444.69
2023-04-28T03:35:14.924Z,101434.06
2023-04-28T03:37:43.190Z,101443.47
2023-04-28T03:40:11.049Z,101431.22
2023-04-28T03:42:57.344Z,101429.59
2023-04-28T03:45:31.576Z,101427.75
2023-04-28T03:47:58.798Z,101432.50
2023-04-28T03:50:26.854Z,101434.16
2023-04-28T03:52:55.252Z,101426.81
2023-04-28T03:55:22.886Z,101432.13
2023-04-28T03:57:51.762Z,101431.75
2023-04-28T04:00:19.151Z,101417.03
2023-04-28T04:02:48.469Z,101417.69
2023-04-28T04:05:16.456Z,101419.13
2023-04-28T04:07:43.780Z,101415.47
2023-04-28T04:10:10.941Z,101420.41
2023-04-28T04:12:40.921Z,101420.03
2023-04-28T04:15:08.943Z,101418.66
2023-04-28T04:17:36.276Z,101420.28
2023-04-28T04:20:04.601Z,101419.09
2023-04-28T04:22:31.563Z,101416.25
2023-04-28T04:24:58.712Z,101416.50
2023-04-28T04:27:26.223Z,101415.50
2023-04-28T04:29:54.245Z,101408.81
2023-04-28T04:32:21.232Z,101414.38
2023-04-28T04:34:49.600Z,101405.03
2023-04-28T04:37:16.759Z,101413.88
2023-04-28T04:39:51.071Z,101414.50
2023-04-28T04:42:25.354Z,101403.31
2023-04-28T04:45:21.976Z,101399.31
2023-04-28T04:47:50.178Z,101397.53
2023-04-28T04:50:17.749Z,101391.84
2023-04-28T04:52:45.944Z,101383.69
2023-04-28T04:55:13.182Z,101386.59
2023-04-28T04:57:42.132Z,101400.38
2023-04-28T05:00:30.877Z,101378.72
2023-04-28T05:02:59.604Z,101385.31
2023-04-28T05:05:26.917Z,101376.38
2023-04-28T05:08:07.064Z,101387.03
2023-04-28T05:10:35.350Z,101380.75
2023-04-28T05:13:04.266Z,101382.88
2023-04-28T05:15:31.662Z,101381.91
2023-04-28T05:18:17.391Z,101373.34
2023-04-28T05:20:45.235Z,101364.44
2023-04-28T05:23:13.719Z,101365.72
2023-04-28T05:25:41.136Z,101378.03
2023-04-28T05:28:12.452Z,101373.34
2023-04-28T05:30:41.686Z,101373.63
2023-04-28T05:33:09.009Z,101378.56
2023-04-28T05:35:36.102Z,101372.91
2023-04-28T05:38:03.221Z,101361.69
2023-04-28T05:40:30.695Z,101357.19
2023-04-28T05:42:57.706Z,101356.00
2023-04-28T05:45:25.086Z,101350.91
2023-04-28T05:47:52.213Z,101357.50
2023-04-28T05:50:19.816Z,101353.41
2023-04-28T05:52:46.884Z,101339.88
2023-04-28T05:55:14.127Z,101340.09
2023-04-28T05:57:52.395Z,101343.78
2023-04-28T06:00:22.016Z,101339.66
2023-04-28T06:02:51.926Z,101343.38
2023-04-28T06:07:59.901Z,101330.19
2023-04-28T06:10:26.978Z,101329.34
2023-04-28T06:12:53.999Z,101339.34
2023-04-28T06:15:21.087Z,101335.19
2023-04-28T06:17:48.540Z,101323.03
2023-04-28T06:20:16.676Z,101319.22
2023-04-28T06:22:44.180Z,101313.53
2023-04-28T06:25:11.590Z,101312.97
2023-04-28T06:27:47.433Z,101304.22
2023-04-28T06:30:23.374Z,101305.41
2023-04-28T06:32:50.742Z,101292.00
2023-04-28T06:35:18.204Z,101289.84
2023-04-28T06:37:45.183Z,101279.44
2023-04-28T06:40:12.235Z,101288.75
2023-04-28T06:42:43.076Z,101286.03
2023-04-28T06:45:18.859Z,101285.22
2023-04-28T06:47:45.878Z,101288.88
2023-04-28T06:50:13.075Z,101275.78
2023-04-28T06:52:40.906Z,101272.63
2023-04-28T06:55:11.607Z,101267.31
2023-04-28T06:57:39.031Z,101259.78
2023-04-28T07:00:08.045Z,101256.34
2023-04-28T07:02:35.389Z,101254.91
2023-04-28T07:05:03.432Z,101254.44
2023-04-28T07:07:30.647Z,101250.34
2023-04-28T07:09:58.946Z,101249.47
2023-04-28T07:12:26.044Z,101236.91
2023-04-28T07:14:53.209Z,101232.22
2023-04-28T07:17:20.196Z,101237.56
2023-04-28T07:19:47.335Z,101233.38
2023-04-28T07:22:14.152Z,101234.41
2023-04-28T07:24:42.194Z,101240.41
2023-04-28T07:27:09.069Z,101219.19
2023-04-28T07:29:36.039Z,101220.88
2023-04-28T07:32:06.834Z,101235.59
2023-04-28T07:34:35.863Z,101209.28
2023-04-28T07:37:04.807Z,101230.66
2023-04-28T07:39:33.905Z,101202.97
2023-04-28T07:42:03.051Z,101220.13
2023-04-28T07:44:31.255Z,101203.25
2023-04-28T07:47:00.708Z,101199.06
2023-04-28T07:49:29.764Z,101204.66
2023-04-28T07:51:56.952Z,101205.06
2023-04-28T07:54:24.166Z,101205.75
2023-04-28T07:56:51.411Z,101182.13
2023-04-28T07:59:18.390Z,101187.16
2023-04-28T08:01:45.435Z,101178.31
2023-04-28T08:04:12.828Z,101184.84
2023-04-28T08:06:41.178Z,101181.41
2023-04-28T08:09:08.285Z,101174.66
2023-04-28T08:11:35.169Z,101166.63
2023-04-28T08:14:03.436Z,101164.25
2023-04-28T08:16:31.170Z,101175.38
2023-04-28T08:18:59.563Z,101170.25
2023-04-28T08:21:27.225Z,101151.56
2023-04-28T08:23:54.340Z,101171.00
2023-04-28T08:26:21.739Z,101158.69
2023-04-28T08:28:49.167Z,101147.69
2023-04-28T08:31:16.815Z,101148.16
2023-04-28T08:33:44.699Z,101147.78
2023-04-28T08:36:15.142Z,101147.72
2023-04-28T08:38:43.086Z,101134.28
2023-04-28T08:41:10.782Z,101135.63
2023-04-28T08:43:37.989Z,101127.59
2023-04-28T08:46:07.584Z,101134.13
2023-04-28T08:48:45.022Z,101110.06
2023-04-28T08:51:26.010Z,101126.75
2023-04-28T08:56:32.985Z,101100.00
2023-04-28T08:59:06.565Z,101106.41
2023-04-28T09:01:34.555Z,101104.00
2023-04-28T09:04:05.419Z,101109.38
2023-04-28T09:06:38.403Z,101101.72
2023-04-28T09:09:21.871Z,101084.38
2023-04-28T09:12:00.886Z,101089.81
2023-04-28T09:14:30.469Z,101087.00
2023-04-28T09:16:57.882Z,101068.03
2023-04-28T09:19:33.781Z,101075.38
2023-04-28T09:22:03.700Z,101064.22
2023-04-28T09:24:43.505Z,101061.00
2023-04-28T09:27:11.860Z,101063.69
2023-04-28T09:29:39.577Z,101053.56
2023-04-28T09:32:21.723Z,101063.88
2023-04-28T09:34:53.890Z,101046.50
2023-04-28T09:37:27.512Z,101046.81
2023-04-28T09:39:55.322Z,101050.53
2023-04-28T09:42:44.279Z,101034.97
2023-04-28T09:45:13.710Z,101039.16
2023-04-28T09:47:43.810Z,101034.47
2023-04-28T09:50:16.395Z,101025.53
2023-04-28T09:52:57.134Z,101030.69
2023-04-28T09:55:25.333Z,101031.97
2023-04-28T09:57:55.458Z,101029.75
2023-04-28T10:00:23.738Z,101025.91
2023-04-28T10:02:52.467Z,101020.34
2023-04-28T10:05:20.048Z,101007.75
2023-04-28T10:07:47.487Z,101016.72
2023-04-28T10:10:14.743Z,101013.03
2023-04-28T10:12:42.164Z,101019.72
2023-04-28T10:15:10.794Z,101006.25
2023-04-28T10:17:39.076Z,101005.72
2023-04-28T10:20:06.960Z,100991.56
2023-04-28T10:22:55.684Z,100980.16
2023-04-28T10:25:28.092Z,100972.44
2023-04-28T10:27:55.083Z,100977.06
2023-04-28T10:30:28.080Z,100972.00
2023-04-28T10:33:14.962Z,100966.00
2023-04-28T10:35:47.475Z,100960.13
2023-04-28T10:38:21.398Z,100957.97
2023-04-28T10:40:53.851Z,100956.81
2023-04-28T10:43:32.412Z,100964.69
2023-04-28T10:46:02.074Z,100954.94
2023-04-28T10:48:36.829Z,100949.91
2023-04-28T10:51:22.543Z,100946.41
2023-04-28T10:53:50.393Z,100950.16
2023-04-28T10:56:26.451Z,100936.28
2023-04-28T10:58:57.758Z,100938.41
2023-04-28T11:01:30.877Z,100932.09
2023-04-28T11:04:13.580Z,100926.22
2023-04-28T11:06:41.552Z,100931.31
2023-04-28T11:09:20.832Z,100927.53
2023-04-28T11:11:59.918Z,100925.78
2023-04-28T11:14:30.113Z,100926.72
2023-04-28T11:17:02.869Z,100919.47
2023-04-28T11:19:43.545Z,100916.09
2023-04-28T11:22:18.644Z,100909.34
2023-04-28T11:25:03.137Z,100914.63
2023-04-28T11:27:32.826Z,100912.16
2023-04-28T11:30:01.490Z,100917.25
2023-04-28T11:32:30.034Z,100926.13
2023-04-28T11:34:57.276Z,100912.44
2023-04-28T11:37:24.480Z,100921.44
2023-04-28T11:39:51.732Z,100925.16
2023-04-28T11:42:18.913Z,100918.81
2023-04-28T11:44:53.808Z,100923.84
2023-04-28T11:47:34.338Z,100924.66
2023-04-28T11:50:03.262Z,100929.28
2023-04-28T11:52:30.563Z,100928.44
2023-04-28T11:55:00.819Z,100930.50
2023-04-28T11:57:28.116Z,100920.69
2023-04-28T12:00:19.511Z,100921.25
2023-04-28T12:02:46.864Z,100921.38
2023-04-28T12:05:14.237Z,100925.28
2023-04-28T12:07:45.605Z,100925.56
2023-04-28T12:10:17.607Z,100917.19
2023-04-28T12:12:51.686Z,100916.66
2023-04-28T12:15:21.937Z,100915.38
2023-04-28T12:17:50.730Z,100919.53
2023-04-28T12:20:38.657Z,100910.22
2023-04-28T12:23:06.863Z,100909.00
2023-04-28T12:25:43.536Z,100900.66
2023-04-28T12:28:10.713Z,100899.66
2023-04-28T12:30:44.391Z,100890.00
2023-04-28T12:33:29.465Z,100879.94
2023-04-28T12:35:58.380Z,100889.38
2023-04-28T12:38:27.115Z,100890.88
2023-04-28T12:40:54.982Z,100884.31
2023-04-28T12:43:24.108Z,100869.25
2023-04-28T12:45:53.415Z,100878.16
2023-04-28T12:48:22.480Z,100881.84
2023-04-28T12:50:49.820Z,100877.16
2023-04-28T12:53:16.816Z,100869.31
2023-04-28T12:55:44.065Z,100865.44
2023-04-28T12:58:11.065Z,100862.63
2023-04-28T13:00:38.222Z,100864.34
2023-04-28T13:03:05.418Z,100869.91
2023-04-28T13:05:32.617Z,100860.97
2023-04-28T13:07:59.603Z,100853.59
2023-04-28T13:10:26.788Z,100867.78
2023-04-28T13:12:53.647Z,100858.84
2023-04-28T13:15:20.777Z,100863.78
2023-04-28T13:17:49.179Z,100854.75
2023-04-28T13:20:16.175Z,100852.91
2023-04-28T13:22:43.280Z,100852.38
2023-04-28T13:25:10.501Z,100860.16
2023-04-28T13:27:38.072Z,100852.75
2023-04-28T13:30:06.785Z,100848.97
2023-04-28T13:32:33.812Z,100844.72
2023-04-28T13:35:00.718Z,100839.19
2023-04-28T13:37:27.867Z,100848.50
2023-04-28T13:39:54.829Z,100840.69
2023-04-28T13:42:22.086Z,100840.50
2023-04-28T13:44:49.296Z,100842.72
2023-04-28T13:47:16.583Z,100832.44
2023-04-28T13:49:43.642Z,100844.09
2023-04-28T13:52:10.501Z,100845.75
2023-04-28T13:54:37.356Z,100844.16
2023-04-28T13:57:04.390Z,100846.88
2023-04-28T13:59:31.365Z,100837.84
2023-04-28T14:01:58.404Z,100832.69
2023-04-28T14:04:25.749Z,100842.78
2023-04-28T14:06:53.294Z,100845.84
2023-04-28T14:09:20.581Z,100839.59
2023-04-28T14:11:47.731Z,100836.31
2023-04-28T14:14:14.701Z,100834.06
2023-04-28T14:16:41.782Z,100839.47
2023-04-28T14:19:08.979Z,100831.56
2023-04-28T14:21:36.971Z,100832.38
2023-04-28T14:24:04.294Z,100840.63
2023-04-28T14:26:31.285Z,100823.28
2023-04-28T14:29:00.061Z,100819.78
2023-04-28T14:31:27.090Z,100826.22
2023-04-28T14:33:54.337Z,100817.34
2023-04-28T14:36:21.169Z,100801.44
2023-04-28T14:38:48.167Z,100803.63
2023-04-28T14:41:15.075Z,100803.63
2023-04-28T14:43:42.021Z,100799.84
2023-04-28T14:46:09.314Z,100804.03
2023-04-28T14:48:37.112Z,100795.47
2023-04-28T14:51:04.306Z,100797.66
2023-04-28T14:53:31.982Z,100793.03
2023-04-28T14:56:16.796Z,100793.41
2023-04-28T14:58:44.763Z,100794.22
2023-04-28T15:01:11.900Z,100789.09
2023-04-28T15:03:39.315Z,100792.91
2023-04-28T15:06:06.544Z,100783.94
2023-04-28T15:08:33.508Z,100782.03
2023-04-28T15:11:00.392Z,100783.44
2023-04-28T15:13:28.450Z,100778.81
2023-04-28T15:15:56.283Z,100774.19
2023-04-28T15:18:23.420Z,100779.69
2023-04-28T15:20:52.241Z,100777.50
2023-04-28T15:23:20.347Z,100762.09
2023-04-28T15:25:47.994Z,100768.53
2023-04-28T15:28:14.957Z,100756.06
2023-04-28T15:30:42.242Z,100760.53
2023-04-28T15:33:09.168Z,100756.72
2023-04-28T15:35:37.409Z,100765.09
2023-04-28T15:38:04.411Z,100764.28
2023-04-28T15:40:31.601Z,100764.78
2023-04-28T15:42:58.636Z,100758.63
2023-04-28T15:45:25.765Z,100759.00
2023-04-28T15:47:54.806Z,100751.53
2023-04-28T15:50:22.122Z,100764.66
2023-04-28T15:52:50.020Z,100750.69
2023-04-28T15:55:19.622Z,100748.91
2023-04-28T15:57:48.335Z,100750.44
2023-04-28T16:00:16.584Z,100764.69
2023-04-28T16:02:44.404Z,100760.72
2023-04-28T16:05:12.759Z,100766.31
2023-04-28T16:07:43.035Z,100771.06
2023-04-28T16:10:14.713Z,100764.69
2023-04-28T16:12:42.682Z,100759.38
2023-04-28T16:15:13.425Z,100763.28
2023-04-28T16:17:41.707Z,100761.44
2023-04-28T16:20:10.920Z,100756.59
2023-04-28T16:22:40.483Z,100758.28
2023-04-28T16:25:08.057Z,100759.97
2023-04-28T16:27:36.827Z,100747.84
2023-04-28T16:30:07.308Z,100752.22
2023-04-28T16:32:36.735Z,100757.41
2023-04-28T16:35:06.225Z,100751.22
2023-04-28T16:37:33.492Z,100760.41
2023-04-28T16:40:00.537Z,100755.81
2023-04-28T16:42:27.553Z,100753.69
2023-04-28T16:44:54.856Z,100761.28
2023-04-28T16:47:22.160Z,100757.47
2023-04-28T16:49:49.424Z,100757.50
2023-04-28T16:52:16.714Z,100760.25
2023-04-28T16:54:43.742Z,100754.06
2023-04-28T16:57:10.701Z,100752.50
2023-04-28T16:59:37.659Z,100745.75
2023-04-28T17:02:04.928Z,100739.31
2023-04-28T17:04:32.259Z,100732.56
2023-04-28T17:06:59.637Z,100750.69
2023-04-28T17:09:27.386Z,100732.03
2023-04-28T17:11:54.912Z,100721.25
2023-04-28T17:14:22.285Z,100727.47
2023-04-28T17:16:49.474Z,100732.63
2023-04-28T17:19:16.776Z,100739.41
2023-04-28T17:21:43.786Z,100734.28
2023-04-28T17:24:10.792Z,100725.38
2023-04-28T17:26:37.951Z,100730.50
2023-04-28T17:29:04.908Z,100734.03
2023-04-28T17:31:32.265Z,100723.25
2023-04-28T17:34:00.400Z,100737.59
2023-04-28T17:36:28.450Z,100725.97
2023-04-28T17:38:56.052Z,100733.03
2023-04-28T17:41:23.266Z,100730.63
2023-04-28T17:43:54.127Z,100727.69
2023-04-28T17:46:21.810Z,100736.34
2023-04-28T17:48:49.055Z,100729.34
2023-04-28T17:51:16.117Z,100735.56
2023-04-28T17:53:43.208Z,100728.03
2023-04-28T17:56:10.159Z,100731.00
2023-04-28T17:58:37.342Z,100735.34
2023-04-28T18:01:07.377Z,100734.56
2023-04-28T18:03:36.199Z,100737.84
2023-04-28T18:06:04.953Z,100729.75
2023-04-28T18:08:32.390Z,100735.94
2023-04-28T18:11:00.520Z,100743.25
2023-04-28T18:13:28.026Z,100743.25
2023-04-28T18:15:54.988Z,100746.16
2023-04-28T18:18:22.324Z,100749.41
2023-04-28T18:20:49.541Z,100742.66
2023-04-28T18:23:16.546Z,100738.88
2023-04-28T18:25:43.886Z,100742.09
2023-04-28T18:28:11.251Z,100734.53
2023-04-28T18:30:38.135Z,100732.38
2023-04-28T18:33:07.512Z,100730.50
2023-04-28T18:35:35.502Z,100727.25
2023-04-28T18:38:03.509Z,100736.69
2023-04-28T18:40:37.770Z,100733.19
2023-04-28T18:43:06.653Z,100722.13
2023-04-28T18:45:36.005Z,100730.22
2023-04-28T18:48:04.474Z,100724.28
2023-04-28T18:50:33.011Z,100728.88
2023-04-28T18:53:04.450Z,100725.63
2023-04-28T18:55:34.866Z,100729.66
2023-04-28T18:58:02.295Z,100713.47
2023-04-28T19:00:29.965Z,100722.38
2023-04-28T19:02:57.358Z,100715.91
2023-04-28T19:05:24.612Z,100723.69
2023-04-28T19:07:51.550Z,100725.88
2023-04-28T19:10:18.755Z,100720.47
2023-04-28T19:12:45.612Z,100725.84
2023-04-28T19:15:12.546Z,100722.03
2023-04-28T19:17:39.562Z,100726.63
2023-04-28T19:20:07.880Z,100715.56
2023-04-28T19:22:36.804Z,100712.88
2023-04-28T19:25:05.268Z,100709.88
2023-04-28T19:27:35.685Z,100723.66
2023-04-28T19:30:05.126Z,100727.41
2023-04-28T19:32:32.561Z,100722.56
2023-04-28T19:35:00.217Z,100722.28
2023-04-28T19:37:27.320Z,100717.16
2023-04-28T19:39:54.248Z,100705.31
2023-04-28T19:42:21.223Z,100705.81
2023-04-28T19:44:48.810Z,100706.09
2023-04-28T19:47:26.735Z,100702.81
2023-04-28T19:49:54.579Z,100714.13
2023-04-28T19:52:22.597Z,100711.69
2023-04-28T19:54:50.967Z,100711.97
2023-04-28T19:57:19.298Z,100712.22
2023-04-28T19:59:47.826Z,100711.13
2023-04-28T20:02:16.380Z,100712.50
2023-04-28T20:04:43.826Z,100708.72
2023-04-28T20:07:11.454Z,100710.59
2023-04-28T20:09:38.855Z,100712.72
2023-04-28T20:12:08.983Z,100708.41
2023-04-28T20:14:37.058Z,100704.63
2023-04-28T20:17:05.470Z,100713.00
2023-04-28T20:19:32.519Z,100708.13
2023-04-28T20:22:02.414Z,100703.56
2023-04-28T20:24:29.533Z,100697.09
2023-04-28T20:26:56.506Z,100695.75
2023-04-28T20:29:23.419Z,100695.19
2023-04-28T20:31:50.521Z,100697.38
2023-04-28T20:34:18.010Z,100692.25
2023-04-28T20:36:44.980Z,100690.09
2023-04-28T20:39:12.176Z,100691.19
2023-04-28T20:41:41.003Z,100682.03
2023-04-28T20:44:08.656Z,100689.31
2023-04-28T20:46:36.006Z,100690.13
2023-04-28T20:49:04.316Z,100679.34
2023-04-28T20:51:34.095Z,100676.91
2023-04-28T20:54:01.841Z,100675.31
2023-04-28T20:56:28.740Z,100675.31
2023-04-28T20:58:55.893Z,100673.97
2023-04-28T21:01:23.213Z,100668.59
2023-04-28T21:03:50.650Z,100661.56
2023-04-28T21:06:18.491Z,100655.91
2023-04-28T21:08:45.632Z,100660.25
2023-04-28T21:11:14.191Z,100653.50
2023-04-28T21:13:43.022Z,100666.44
2023-04-28T21:16:20.860Z,100648.94
2023-04-28T21:18:49.662Z,100658.91
2023-04-28T21:21:17.235Z,100654.59
2023-04-28T21:23:44.267Z,100650.81
2023-04-28T21:26:11.359Z,100635.72
2023-04-28T21:28:39.900Z,100651.09
2023-04-28T21:31:07.499Z,100642.72
2023-04-28T21:33:34.515Z,100634.38
2023-04-28T21:36:08.158Z,100643.78
2023-04-28T21:38:39.069Z,100642.19
2023-04-28T21:41:07.535Z,100634.88
2023-04-28T21:43:34.500Z,100638.41
2023-04-28T21:46:01.464Z,100634.09
2023-04-28T21:48:28.581Z,100627.63
2023-04-28T21:50:55.853Z,100620.88
2023-04-28T21:53:23.418Z,100613.09
2023-04-28T21:55:50.290Z,100629.53
2023-04-28T21:58:17.211Z,100626.03
2023-04-28T22:00:47.123Z,100623.84
2023-04-28T22:03:15.335Z,100631.94
2023-04-28T22:05:43.941Z,100634.88
2023-04-28T22:08:11.293Z,100620.63
2023-04-28T22:10:38.445Z,100623.84
2023-04-28T22:13:06.378Z,100616.84
2023-04-28T22:15:33.766Z,100618.72
2023-04-28T22:18:00.931Z,100618.47
2023-04-28T22:20:27.971Z,100624.09
2023-04-28T22:22:55.060Z,100613.59
2023-04-28T22:25:22.261Z,100618.19
2023-04-28T22:27:49.433Z,100617.09
2023-04-28T22:30:16.720Z,100603.91
2023-04-28T22:32:47.350Z,100610.91
2023-04-28T22:35:16.548Z,100607.13
2023-04-28T22:37:43.665Z,100607.13
2023-04-28T22:40:11.104Z,100598.53
2023-04-28T22:42:40.671Z,100592.59
2023-04-28T22:45:10.395Z,100597.97
2023-04-28T22:47:40.630Z,100590.16
2023-04-28T22:50:11.740Z,100582.09
2023-04-28T22:52:39.276Z,100584.25
2023-04-28T22:55:06.840Z,100592.59
2023-04-28T22:57:33.929Z,100580.19
2023-04-28T23:00:00.855Z,100580.19
2023-04-28T23:02:28.701Z,100581.53
2023-04-28T23:04:59.872Z,100578.59
2023-04-28T23:07:27.245Z,100582.34
2023-04-28T23:09:54.790Z,100574.00
2023-04-28T23:12:21.893Z,100581.53
2023-04-28T23:14:48.818Z,100580.19
2023-04-28T23:17:16.296Z,100580.19
2023-04-28T23:19:43.312Z,100576.94
2023-04-28T23:22:10.407Z,100574.81
2023-04-28T23:24:37.973Z,100565.91
2023-04-28T23:27:05.101Z,100574.00
2023-04-28T23:29:33.103Z,100567.81
2023-04-28T23:32:00.402Z,100560.53
2023-04-28T23:34:27.472Z,100559.72
2023-04-28T23:36:54.497Z,100563.50
2023-04-28T23:39:21.491Z,100555.97
2023-04-28T23:41:48.432Z,100547.88
2023-04-28T23:44:15.632Z,100535.50
2023-04-28T23:46:43.146Z,100536.56
2023-04-28T23:49:10.463Z,100526.34
2023-04-28T23:51:37.382Z,100542.75
2023-04-28T23:54:04.265Z,100543.03
2023-04-28T23:56:31.620Z,100534.41
2023-04-28T23:58:58.799Z,100541.13
